createdAt,value
2023-03-28T00:01:09.144Z,3.10
2023-03-28T00:03:39.953Z,3.10
2023-03-28T00:06:11.427Z,3.10
2023-03-28T00:08:40.567Z,3.10
2023-03-28T00:11:11.389Z,3.10
2023-03-28T00:13:40.098Z,3.10
2023-03-28T00:16:12.743Z,3.20
2023-03-28T00:18:42.578Z,3.20
2023-03-28T00:21:23.359Z,3.10
2023-03-28T00:23:53.610Z,3.10
2023-03-28T00:26:24.681Z,3.10
2023-03-28T00:28:53.222Z,3.20
2023-03-28T00:31:23.807Z,3.20
2023-03-28T00:33:52.141Z,3.10
2023-03-28T00:36:22.957Z,3.20
2023-03-28T00:38:52.344Z,3.20
2023-03-28T00:41:21.750Z,3.20
2023-03-28T00:43:51.806Z,3.20
2023-03-28T00:46:26.302Z,3.20
2023-03-28T00:49:00.477Z,3.20
2023-03-28T00:51:33.301Z,3.20
2023-03-28T00:54:03.885Z,3.20
2023-03-28T00:56:35.523Z,3.20
2023-03-28T00:59:07.927Z,3.00
2023-03-28T01:01:37.603Z,3.10
2023-03-28T01:04:10.356Z,3.10
2023-03-28T01:06:43.081Z,3.10
2023-03-28T01:09:16.718Z,3.10
2023-03-28T01:11:50.131Z,3.00
2023-03-28T01:14:21.363Z,3.00
2023-03-28T01:16:52.620Z,3.00
2023-03-28T01:19:32.669Z,3.10
2023-03-28T01:22:42.561Z,3.00
2023-03-28T01:26:00.911Z,3.00
2023-03-28T01:29:00.744Z,3.00
2023-03-28T01:32:00.515Z,3.00
2023-03-28T01:35:08.475Z,3.00
2023-03-28T01:37:45.896Z,3.00
2023-03-28T01:40:25.752Z,3.00
2023-03-28T01:43:12.549Z,3.00
2023-03-28T01:45:49.173Z,3.00
2023-03-28T01:48:28.303Z,3.00
2023-03-28T01:51:03.735Z,3.00
2023-03-28T01:53:39.545Z,3.00
2023-03-28T01:56:15.605Z,3.00
2023-03-28T01:58:48.069Z,3.00
2023-03-28T02:01:30.215Z,2.90
2023-03-28T02:04:03.609Z,2.90
2023-03-28T02:06:38.602Z,2.90
2023-03-28T02:09:14.368Z,2.90
2023-03-28T02:12:14.680Z,2.90
2023-03-28T02:15:04.904Z,2.90
2023-03-28T02:18:02.309Z,2.90
2023-03-28T02:20:44.291Z,2.90
2023-03-28T02:23:38.189Z,2.90
2023-03-28T02:26:29.623Z,2.90
2023-03-28T02:29:09.736Z,2.90
2023-03-28T02:31:59.633Z,2.90
2023-03-28T02:34:27.879Z,2.90
2023-03-28T02:37:07.426Z,2.90
2023-03-28T02:39:58.982Z,2.90
2023-03-28T02:42:55.524Z,2.90
2023-03-28T02:45:46.845Z,2.90
2023-03-28T02:48:26.333Z,2.90
2023-03-28T02:51:06.264Z,2.90
2023-03-28T02:53:44.819Z,2.90
2023-03-28T02:56:22.958Z,2.90
2023-03-28T02:59:12.535Z,2.90
2023-03-28T03:01:41.606Z,2.90
2023-03-28T03:04:09.856Z,2.90
2023-03-28T03:06:38.003Z,2.90
2023-03-28T03:09:06.232Z,2.90
2023-03-28T03:11:34.320Z,2.90
2023-03-28T03:14:02.697Z,3.00
2023-03-28T03:16:33.086Z,2.90
2023-03-28T03:19:01.322Z,2.90
2023-03-28T03:21:32.367Z,2.90
2023-03-28T03:24:00.634Z,2.90
2023-03-28T03:26:28.830Z,2.90
2023-03-28T03:29:02.947Z,2.90
2023-03-28T03:31:34.585Z,2.90
2023-03-28T03:34:24.271Z,2.90
2023-03-28T03:36:56.338Z,2.90
2023-03-28T03:39:25.270Z,2.90
2023-03-28T03:41:53.332Z,2.90
2023-03-28T03:44:21.453Z,2.90
2023-03-28T03:46:50.957Z,2.90
2023-03-28T03:49:19.045Z,2.90
2023-03-28T03:51:47.626Z,2.90
2023-03-28T03:54:18.263Z,2.90
2023-03-28T03:56:46.971Z,2.90
2023-03-28T03:59:16.187Z,2.80
2023-03-28T04:01:46.594Z,2.80
2023-03-28T04:04:34.492Z,2.80
2023-03-28T04:07:12.099Z,2.80
2023-03-28T04:09:40.363Z,2.80
2023-03-28T04:12:09.136Z,2.70
2023-03-28T04:14:48.285Z,2.70
2023-03-28T04:17:44.436Z,2.70
2023-03-28T04:20:21.009Z,2.70
2023-03-28T04:23:09.719Z,2.70
2023-03-28T04:25:41.500Z,2.70
2023-03-28T04:28:16.270Z,2.70
2023-03-28T04:31:13.566Z,2.70
2023-03-28T04:34:05.379Z,2.60
2023-03-28T04:36:41.066Z,2.60
2023-03-28T04:39:09.170Z,2.60
2023-03-28T04:41:55.677Z,2.60
2023-03-28T04:44:48.524Z,2.60
2023-03-28T04:47:18.456Z,2.60
2023-03-28T04:49:48.797Z,2.60
2023-03-28T04:52:18.549Z,2.60
2023-03-28T04:54:48.797Z,2.50
2023-03-28T04:57:19.144Z,2.50
2023-03-28T04:59:53.111Z,2.50
2023-03-28T05:02:44.627Z,2.50
2023-03-28T05:05:16.108Z,2.50
2023-03-28T05:07:46.114Z,2.40
2023-03-28T05:10:14.760Z,2.40
2023-03-28T05:12:43.000Z,2.40
2023-03-28T05:15:22.070Z,2.50
2023-03-28T05:18:17.358Z,2.50
2023-03-28T05:20:46.587Z,2.50
2023-03-28T05:23:16.217Z,2.50
2023-03-28T05:25:52.388Z,2.40
2023-03-28T05:28:21.273Z,2.40
2023-03-28T05:30:52.639Z,2.40
2023-03-28T05:33:20.940Z,2.50
2023-03-28T05:35:50.242Z,2.40
2023-03-28T05:38:20.003Z,2.40
2023-03-28T05:40:53.395Z,2.40
2023-03-28T05:43:21.529Z,2.40
2023-03-28T05:45:50.093Z,2.40
2023-03-28T05:48:24.425Z,2.40
2023-03-28T05:50:52.877Z,2.40
2023-03-28T05:53:22.395Z,2.40
2023-03-28T05:55:51.754Z,2.50
2023-03-28T05:58:20.156Z,2.50
2023-03-28T06:00:48.393Z,2.50
2023-03-28T06:03:17.652Z,2.50
2023-03-28T06:05:47.155Z,2.50
2023-03-28T06:08:22.940Z,2.50
2023-03-28T06:10:51.376Z,2.50
2023-03-28T06:13:31.605Z,2.60
2023-03-28T06:16:00.381Z,2.60
2023-03-28T06:18:34.252Z,2.70
2023-03-28T06:21:02.680Z,2.80
2023-03-28T06:23:32.534Z,2.80
2023-03-28T06:26:01.583Z,3.00
2023-03-28T06:28:36.929Z,3.10
2023-03-28T06:31:24.818Z,3.30
2023-03-28T06:33:53.949Z,3.60
2023-03-28T06:36:23.657Z,3.70
2023-03-28T06:38:53.691Z,3.80
2023-03-28T06:41:24.346Z,3.90
2023-03-28T06:43:52.541Z,3.80
2023-03-28T06:46:59.123Z,3.80
2023-03-28T06:49:27.301Z,3.70
2023-03-28T06:52:00.960Z,3.70
2023-03-28T06:54:31.613Z,3.80
2023-03-28T06:57:00.234Z,3.80
2023-03-28T06:59:29.611Z,3.80
2023-03-28T07:02:03.207Z,3.80
2023-03-28T07:04:34.983Z,3.80
2023-03-28T07:07:04.255Z,4.00
2023-03-28T07:09:33.861Z,4.10
2023-03-28T07:12:08.580Z,4.20
2023-03-28T07:14:36.922Z,4.30
2023-03-28T07:17:05.029Z,4.40
2023-03-28T07:19:33.935Z,4.50
2023-03-28T07:22:02.337Z,4.60
2023-03-28T07:24:30.894Z,4.60
2023-03-28T07:27:16.026Z,4.60
2023-03-28T07:29:46.326Z,4.60
2023-03-28T07:32:15.536Z,4.50
2023-03-28T07:34:46.344Z,4.50
2023-03-28T07:37:20.402Z,4.50
2023-03-28T07:40:17.883Z,4.50
2023-03-28T07:42:49.453Z,4.70
2023-03-28T07:45:17.860Z,4.80
2023-03-28T07:47:46.361Z,4.90
2023-03-28T07:50:14.628Z,5.10
2023-03-28T07:52:45.655Z,5.20
2023-03-28T07:55:14.938Z,5.20
2023-03-28T07:57:50.158Z,5.20
2023-03-28T08:00:47.776Z,5.20
2023-03-28T08:03:34.976Z,5.30
2023-03-28T08:06:09.417Z,5.50
2023-03-28T08:08:45.378Z,5.70
2023-03-28T08:11:23.428Z,5.90
2023-03-28T08:13:52.840Z,6.10
2023-03-28T08:16:24.193Z,6.30
2023-03-28T08:19:09.271Z,6.50
2023-03-28T08:21:47.993Z,6.60
2023-03-28T08:24:25.249Z,6.80
2023-03-28T08:27:05.657Z,7.00
2023-03-28T08:29:35.160Z,7.10
2023-03-28T08:32:06.137Z,7.20
2023-03-28T08:34:35.084Z,7.40
2023-03-28T08:37:09.475Z,7.40
2023-03-28T08:39:39.709Z,7.40
2023-03-28T08:42:29.556Z,7.40
2023-03-28T08:45:16.161Z,7.50
2023-03-28T08:47:57.032Z,7.50
2023-03-28T08:50:29.944Z,7.50
2023-03-28T08:52:58.869Z,7.50
2023-03-28T08:55:33.612Z,7.60
2023-03-28T08:58:02.190Z,7.70
2023-03-28T09:00:34.072Z,7.60
2023-03-28T09:03:02.326Z,7.70
2023-03-28T09:05:36.699Z,7.70
2023-03-28T09:08:24.255Z,7.70
2023-03-28T09:11:03.276Z,7.80
2023-03-28T09:13:40.666Z,7.90
2023-03-28T09:16:21.184Z,7.80
2023-03-28T09:19:21.124Z,7.90
2023-03-28T09:22:14.926Z,7.90
2023-03-28T09:25:00.790Z,8.00
2023-03-28T09:27:35.548Z,8.00
2023-03-28T09:30:19.625Z,8.00
2023-03-28T09:32:50.439Z,8.10
2023-03-28T09:35:22.958Z,8.20
2023-03-28T09:37:54.917Z,8.20
2023-03-28T09:40:27.427Z,8.20
2023-03-28T09:43:20.180Z,8.20
2023-03-28T09:46:15.702Z,8.20
2023-03-28T09:49:03.871Z,8.30
2023-03-28T09:51:38.294Z,8.40
2023-03-28T09:54:08.082Z,8.40
2023-03-28T09:56:39.585Z,8.50
2023-03-28T09:59:39.376Z,8.50
2023-03-28T10:02:27.582Z,8.60
2023-03-28T10:04:58.468Z,8.70
2023-03-28T10:07:44.677Z,8.70
2023-03-28T10:10:38.382Z,8.70
2023-03-28T10:13:11.613Z,8.60
2023-03-28T10:15:43.500Z,8.60
2023-03-28T10:18:27.620Z,8.50
2023-03-28T10:21:15.736Z,8.50
2023-03-28T10:23:53.222Z,8.50
2023-03-28T10:26:27.515Z,8.50
2023-03-28T10:29:04.350Z,8.50
2023-03-28T10:31:34.517Z,8.40
2023-03-28T10:34:33.810Z,8.50
2023-03-28T10:37:28.476Z,8.50
2023-03-28T10:40:29.996Z,8.40
2023-03-28T10:43:14.716Z,8.40
2023-03-28T10:46:17.146Z,8.50
2023-03-28T10:49:07.948Z,8.50
2023-03-28T10:51:42.128Z,8.60
2023-03-28T10:54:51.263Z,8.60
2023-03-28T10:57:47.464Z,8.70
2023-03-28T11:00:21.318Z,8.80
2023-03-28T11:03:12.568Z,8.90
2023-03-28T11:06:05.815Z,8.90
2023-03-28T11:08:46.179Z,8.90
2023-03-28T11:11:36.081Z,9.00
2023-03-28T11:14:16.604Z,9.10
2023-03-28T11:16:52.730Z,9.20
2023-03-28T11:20:08.715Z,9.30
2023-03-28T11:23:03.026Z,9.40
2023-03-28T11:25:47.060Z,9.50
2023-03-28T11:28:48.360Z,9.60
2023-03-28T11:31:25.248Z,9.60
2023-03-28T11:34:05.679Z,9.70
2023-03-28T11:36:38.937Z,9.80
2023-03-28T11:39:14.633Z,9.90
2023-03-28T11:41:45.977Z,9.90
2023-03-28T11:44:24.755Z,9.90
2023-03-28T11:46:58.430Z,10.00
2023-03-28T11:49:33.275Z,10.00
2023-03-28T11:52:07.139Z,9.90
2023-03-28T11:54:41.428Z,9.90
2023-03-28T11:57:18.889Z,9.80
2023-03-28T12:00:05.320Z,9.80
2023-03-28T12:02:47.455Z,9.90
2023-03-28T12:05:26.010Z,10.00
2023-03-28T12:07:58.430Z,10.00
2023-03-28T12:10:35.989Z,10.00
2023-03-28T12:13:13.320Z,10.10
2023-03-28T12:15:53.316Z,10.10
2023-03-28T12:18:31.155Z,10.20
2023-03-28T12:21:06.659Z,10.10
2023-03-28T12:23:53.500Z,10.10
2023-03-28T12:26:35.583Z,10.10
2023-03-28T12:29:11.360Z,10.10
2023-03-28T12:31:48.020Z,10.20
2023-03-28T12:34:29.815Z,10.20
2023-03-28T12:37:22.933Z,10.20
2023-03-28T12:39:58.022Z,10.20
2023-03-28T12:42:30.420Z,10.20
2023-03-28T12:45:01.419Z,10.20
2023-03-28T12:47:35.874Z,10.10
2023-03-28T12:50:08.690Z,10.10
2023-03-28T12:52:39.007Z,10.00
2023-03-28T12:55:48.053Z,10.00
2023-03-28T12:58:26.471Z,9.90
2023-03-28T13:01:22.731Z,9.80
2023-03-28T13:04:32.886Z,9.70
2023-03-28T13:07:24.570Z,9.60
2023-03-28T13:10:02.301Z,9.60
2023-03-28T13:12:47.735Z,9.50
2023-03-28T13:15:31.938Z,9.50
2023-03-28T13:18:32.449Z,9.50
2023-03-28T13:21:05.348Z,9.40
2023-03-28T13:23:36.994Z,9.40
2023-03-28T13:26:06.732Z,9.40
2023-03-28T13:28:43.265Z,9.50
2023-03-28T13:31:24.116Z,9.50
2023-03-28T13:33:58.362Z,9.60
2023-03-28T13:36:30.691Z,9.60
2023-03-28T13:39:09.388Z,9.60
2023-03-28T13:42:03.805Z,9.60
2023-03-28T13:44:43.976Z,9.60
2023-03-28T13:47:21.597Z,9.60
2023-03-28T13:49:53.291Z,9.60
2023-03-28T13:52:24.951Z,9.60
2023-03-28T13:54:55.046Z,9.60
2023-03-28T13:57:26.375Z,9.60
2023-03-28T13:59:58.699Z,9.50
2023-03-28T14:02:37.589Z,9.50
2023-03-28T14:05:14.903Z,9.50
2023-03-28T14:07:44.434Z,9.40
2023-03-28T14:10:31.084Z,9.40
2023-03-28T14:13:03.659Z,9.40
2023-03-28T14:15:36.240Z,9.40
2023-03-28T14:18:05.035Z,9.50
2023-03-28T14:20:34.509Z,9.50
2023-03-28T14:23:05.151Z,9.50
2023-03-28T14:25:34.193Z,9.60
2023-03-28T14:28:08.540Z,9.60
2023-03-28T14:30:40.742Z,9.60
2023-03-28T14:33:20.302Z,9.60
2023-03-28T14:35:57.890Z,9.60
2023-03-28T14:38:33.090Z,9.70
2023-03-28T14:41:10.094Z,9.70
2023-03-28T14:43:38.235Z,9.70
2023-03-28T14:46:09.234Z,9.70
2023-03-28T14:48:39.127Z,9.80
2023-03-28T14:51:08.014Z,9.80
2023-03-28T14:53:42.100Z,9.90
2023-03-28T14:56:13.506Z,10.00
2023-03-28T14:58:44.974Z,10.00
2023-03-28T15:01:21.681Z,10.10
2023-03-28T15:03:53.703Z,10.10
2023-03-28T15:06:24.195Z,10.10
2023-03-28T15:08:55.868Z,10.20
2023-03-28T15:11:29.184Z,10.20
2023-03-28T15:14:02.124Z,10.20
2023-03-28T15:16:31.341Z,10.20
2023-03-28T15:19:06.749Z,10.20
2023-03-28T15:21:37.057Z,10.20
2023-03-28T15:24:10.810Z,10.20
2023-03-28T15:26:42.884Z,10.10
2023-03-28T15:29:16.821Z,10.10
2023-03-28T15:31:45.783Z,10.10
2023-03-28T15:34:20.773Z,10.10
2023-03-28T15:36:54.231Z,10.10
2023-03-28T15:39:27.182Z,10.10
2023-03-28T15:42:00.187Z,10.20
2023-03-28T15:44:31.072Z,10.20
2023-03-28T15:47:05.439Z,10.20
2023-03-28T15:49:37.209Z,10.20
2023-03-28T15:52:06.993Z,10.10
2023-03-28T15:54:42.251Z,10.10
2023-03-28T15:57:13.494Z,10.00
2023-03-28T15:59:46.414Z,9.90
2023-03-28T16:02:30.860Z,9.90
2023-03-28T16:05:03.672Z,9.80
2023-03-28T16:07:37.201Z,9.80
2023-03-28T16:10:07.962Z,9.70
2023-03-28T16:12:51.573Z,9.70
2023-03-28T16:15:34.155Z,9.60
2023-03-28T16:18:14.968Z,9.60
2023-03-28T16:20:51.144Z,9.60
2023-03-28T16:23:19.236Z,9.60
2023-03-28T16:25:48.961Z,9.50
2023-03-28T16:28:19.121Z,9.50
2023-03-28T16:30:47.459Z,9.50
2023-03-28T16:33:16.986Z,9.50
2023-03-28T16:35:45.196Z,9.40
2023-03-28T16:38:13.479Z,9.40
2023-03-28T16:40:42.190Z,9.40
2023-03-28T16:43:12.402Z,9.30
2023-03-28T16:45:40.793Z,9.30
2023-03-28T16:48:09.006Z,9.20
2023-03-28T16:50:37.103Z,9.20
2023-03-28T16:53:06.524Z,9.20
2023-03-28T16:55:34.647Z,9.20
2023-03-28T16:58:02.957Z,9.10
2023-03-28T17:00:40.407Z,9.10
2023-03-28T17:03:09.128Z,9.10
2023-03-28T17:05:38.018Z,9.00
2023-03-28T17:08:06.417Z,9.00
2023-03-28T17:10:34.985Z,9.00
2023-03-28T17:13:03.631Z,9.00
2023-03-28T17:15:32.179Z,8.90
2023-03-28T17:18:01.934Z,8.90
2023-03-28T17:20:31.167Z,8.90
2023-03-28T17:22:59.630Z,8.90
2023-03-28T17:25:27.930Z,8.90
2023-03-28T17:27:56.023Z,8.80
2023-03-28T17:30:24.099Z,8.80
2023-03-28T17:32:52.477Z,8.80
2023-03-28T17:35:22.472Z,8.70
2023-03-28T17:37:52.642Z,8.70
2023-03-28T17:40:21.443Z,8.70
2023-03-28T17:42:49.561Z,8.70
2023-03-28T17:45:17.744Z,8.60
2023-03-28T17:47:46.159Z,8.60
2023-03-28T17:50:14.528Z,8.60
2023-03-28T17:52:44.551Z,8.50
2023-03-28T17:55:12.671Z,8.50
2023-03-28T17:57:40.727Z,8.50
2023-03-28T18:00:09.848Z,8.40
2023-03-28T18:02:45.851Z,8.40
2023-03-28T18:05:30.432Z,8.40
2023-03-28T18:08:00.110Z,8.40
2023-03-28T18:10:28.176Z,8.30
2023-03-28T18:12:56.263Z,8.30
2023-03-28T18:15:24.368Z,8.30
2023-03-28T18:17:52.565Z,8.20
2023-03-28T18:20:23.052Z,8.20
2023-03-28T18:22:52.704Z,8.20
2023-03-28T18:25:22.166Z,8.20
2023-03-28T18:27:50.728Z,8.10
2023-03-28T18:30:19.055Z,8.10
2023-03-28T18:32:47.159Z,8.10
2023-03-28T18:35:15.232Z,8.00
2023-03-28T18:37:43.270Z,8.00
2023-03-28T18:40:11.877Z,8.00
2023-03-28T18:42:41.468Z,8.00
2023-03-28T18:45:11.198Z,8.00
2023-03-28T18:47:39.824Z,7.90
2023-03-28T18:50:10.376Z,7.80
2023-03-28T18:52:38.639Z,7.80
2023-03-28T18:55:07.687Z,7.80
2023-03-28T18:57:35.788Z,7.80
2023-03-28T19:00:17.978Z,7.70
2023-03-28T19:02:46.248Z,7.70
2023-03-28T19:05:15.314Z,7.70
2023-03-28T19:07:43.678Z,7.60
2023-03-28T19:10:13.272Z,7.60
2023-03-28T19:12:42.169Z,7.60
2023-03-28T19:15:12.992Z,7.60
2023-03-28T19:17:41.290Z,7.60
2023-03-28T19:20:12.816Z,7.50
2023-03-28T19:22:41.280Z,7.50
2023-03-28T19:25:10.230Z,7.50
2023-03-28T19:27:38.757Z,7.50
2023-03-28T19:30:11.559Z,7.50
2023-03-28T19:32:41.328Z,7.40
2023-03-28T19:35:10.594Z,7.40
2023-03-28T19:37:38.627Z,7.40
2023-03-28T19:40:09.408Z,7.40
2023-03-28T19:47:01.315Z,7.40
2023-03-28T19:49:30.738Z,7.30
2023-03-28T19:51:59.455Z,7.30
2023-03-28T19:54:27.581Z,7.30
2023-03-28T19:56:55.702Z,7.30
2023-03-28T19:59:23.877Z,7.30
2023-03-28T20:01:51.939Z,7.30
2023-03-28T20:04:20.869Z,7.30
2023-03-28T20:06:50.370Z,7.30
2023-03-28T20:09:18.434Z,7.30
2023-03-28T20:11:46.914Z,7.20
2023-03-28T20:14:17.191Z,7.20
2023-03-28T20:16:45.278Z,7.20
2023-03-28T20:19:13.400Z,7.20
2023-03-28T20:21:41.754Z,7.20
2023-03-28T20:24:12.084Z,7.30
2023-03-28T20:26:41.474Z,7.20
2023-03-28T20:29:13.823Z,7.20
2023-03-28T20:31:41.947Z,7.30
2023-03-28T20:34:09.990Z,7.20
2023-03-28T20:36:38.292Z,7.30
2023-03-28T20:39:06.882Z,7.30
2023-03-28T20:41:37.684Z,7.20
2023-03-28T20:44:05.967Z,7.20
2023-03-28T20:46:36.840Z,7.30
2023-03-28T20:49:06.149Z,7.30
2023-03-28T20:51:39.179Z,7.30
2023-03-28T20:54:07.654Z,7.30
2023-03-28T20:56:37.115Z,7.30
2023-03-28T20:59:05.898Z,7.30
2023-03-28T21:01:39.446Z,7.30
2023-03-28T21:04:07.532Z,7.30
2023-03-28T21:06:38.245Z,7.30
2023-03-28T21:09:09.768Z,7.30
2023-03-28T21:11:41.216Z,7.30
2023-03-28T21:14:11.503Z,7.20
2023-03-28T21:16:39.673Z,7.20
2023-03-28T21:19:08.135Z,7.20
2023-03-28T21:21:36.769Z,7.20
2023-03-28T21:24:07.249Z,7.20
2023-03-28T21:26:35.829Z,7.20
2023-03-28T21:29:05.605Z,7.20
2023-03-28T21:31:33.872Z,7.20
2023-03-28T21:34:01.931Z,7.20
2023-03-28T21:36:30.433Z,7.20
2023-03-28T21:38:58.572Z,7.20
2023-03-28T21:41:27.947Z,7.20
2023-03-28T21:43:56.697Z,7.20
2023-03-28T21:46:26.279Z,7.10
2023-03-28T21:48:54.507Z,7.20
2023-03-28T21:51:22.599Z,7.10
2023-03-28T21:53:50.869Z,7.10
2023-03-28T21:56:18.882Z,7.10
2023-03-28T21:58:46.954Z,7.10
2023-03-28T22:01:17.635Z,7.10
2023-03-28T22:03:48.476Z,7.10
2023-03-28T22:06:18.758Z,7.10
2023-03-28T22:08:52.002Z,7.10
2023-03-28T22:11:28.118Z,7.10
2023-03-28T22:14:01.166Z,7.10
2023-03-28T22:16:31.382Z,7.10
2023-03-28T22:19:01.079Z,7.00
2023-03-28T22:21:31.473Z,7.10
2023-03-28T22:24:02.547Z,7.10
2023-03-28T22:26:30.981Z,7.00
2023-03-28T22:28:59.461Z,7.00
2023-03-28T22:31:28.110Z,7.00
2023-03-28T22:33:56.523Z,7.00
2023-03-28T22:36:25.963Z,7.00
2023-03-28T22:38:54.705Z,7.00
2023-03-28T22:41:23.687Z,7.00
2023-03-28T22:43:51.959Z,7.00
2023-03-28T22:46:21.213Z,7.00
2023-03-28T22:48:54.130Z,7.00
2023-03-28T22:51:25.080Z,7.00
2023-03-28T22:53:55.204Z,6.90
2023-03-28T22:56:25.373Z,6.90
2023-03-28T22:58:53.967Z,6.90
2023-03-28T23:01:25.949Z,6.90
2023-03-28T23:03:54.157Z,6.90
2023-03-28T23:06:22.176Z,6.90
2023-03-28T23:08:50.199Z,6.90
2023-03-28T23:11:19.635Z,6.80
2023-03-28T23:13:47.726Z,6.80
2023-03-28T23:16:15.807Z,6.80
2023-03-28T23:18:44.244Z,6.80
2023-03-28T23:21:13.113Z,6.80
2023-03-28T23:23:42.303Z,6.80
2023-03-28T23:26:10.599Z,6.80
2023-03-28T23:28:40.154Z,6.70
2023-03-28T23:31:08.528Z,6.70
2023-03-28T23:33:36.563Z,6.70
2023-03-28T23:36:05.026Z,6.70
2023-03-28T23:38:33.220Z,6.70
2023-03-28T23:41:01.504Z,6.70
2023-03-28T23:43:29.767Z,6.70
2023-03-28T23:45:59.172Z,6.60
2023-03-28T23:48:27.366Z,6.60
2023-03-28T23:50:55.452Z,6.60
2023-03-28T23:53:23.564Z,6.60
2023-03-28T23:55:51.865Z,6.60
2023-03-28T23:58:19.930Z,6.60
